sensor_id;sensor_type;location;lat;lon;timestamp;pressure;altitude;pressure_sealevel;temperature
15935;BMP180;8066;48.776;11.384;2022-07-09T00:00:43;98578.00;;;23.70
15935;BMP180;8066;48.776;11.384;2022-07-09T00:03:09;98583.00;;;23.70
15935;BMP180;8066;48.776;11.384;2022-07-09T00:05:38;98583.00;;;23.70
15935;BMP180;8066;48.776;11.384;2022-07-09T00:08:05;98575.00;;;23.70
15935;BMP180;8066;48.776;11.384;2022-07-09T00:10:31;98575.00;;;23.60
15935;BMP180;8066;48.776;11.384;2022-07-09T00:12:58;98581.00;;;23.60
15935;BMP180;8066;48.776;11.384;2022-07-09T00:15:26;98581.00;;;23.60
15935;BMP180;8066;48.776;11.384;2022-07-09T00:17:52;98571.00;;;23.60
15935;BMP180;8066;48.776;11.384;2022-07-09T00:20:19;98563.00;;;23.60
15935;BMP180;8066;48.776;11.384;2022-07-09T00:22:47;98566.00;;;23.60
15935;BMP180;8066;48.776;11.384;2022-07-09T00:25:14;98566.00;;;23.60
15935;BMP180;8066;48.776;11.384;2022-07-09T00:27:41;98567.00;;;23.60
15935;BMP180;8066;48.776;11.384;2022-07-09T00:30:09;98560.00;;;23.60
15935;BMP180;8066;48.776;11.384;2022-07-09T00:32:36;98564.00;;;23.50
15935;BMP180;8066;48.776;11.384;2022-07-09T00:35:04;98566.00;;;23.50
15935;BMP180;8066;48.776;11.384;2022-07-09T00:37:31;98554.00;;;23.50
15935;BMP180;8066;48.776;11.384;2022-07-09T00:39:59;98560.00;;;23.50
15935;BMP180;8066;48.776;11.384;2022-07-09T00:42:26;98540.00;;;23.40
15935;BMP180;8066;48.776;11.384;2022-07-09T00:44:52;98548.00;;;23.40
15935;BMP180;8066;48.776;11.384;2022-07-09T00:47:19;98545.00;;;23.40
15935;BMP180;8066;48.776;11.384;2022-07-09T00:49:46;98538.00;;;23.40
15935;BMP180;8066;48.776;11.384;2022-07-09T00:52:14;98541.00;;;23.40
15935;BMP180;8066;48.776;11.384;2022-07-09T00:54:44;98529.00;;;23.40
15935;BMP180;8066;48.776;11.384;2022-07-09T00:57:13;98528.00;;;23.30
15935;BMP180;8066;48.776;11.384;2022-07-09T00:59:40;98534.00;;;23.30
15935;BMP180;8066;48.776;11.384;2022-07-09T01:02:08;98529.00;;;23.30
15935;BMP180;8066;48.776;11.384;2022-07-09T01:04:35;98527.00;;;23.30
15935;BMP180;8066;48.776;11.384;2022-07-09T01:07:05;98534.00;;;23.30
15935;BMP180;8066;48.776;11.384;2022-07-09T01:09:32;98528.00;;;23.30
15935;BMP180;8066;48.776;11.384;2022-07-09T01:11:59;98528.00;;;23.30
15935;BMP180;8066;48.776;11.384;2022-07-09T01:14:28;98544.00;;;23.30
15935;BMP180;8066;48.776;11.384;2022-07-09T01:16:59;98525.00;;;23.30
15935;BMP180;8066;48.776;11.384;2022-07-09T01:19:27;98541.00;;;23.30
15935;BMP180;8066;48.776;11.384;2022-07-09T01:21:56;98545.00;;;23.20
15935;BMP180;8066;48.776;11.384;2022-07-09T01:24:24;98536.00;;;23.20
15935;BMP180;8066;48.776;11.384;2022-07-09T01:26:53;98535.00;;;23.20
15935;BMP180;8066;48.776;11.384;2022-07-09T01:29:21;98536.00;;;23.20
15935;BMP180;8066;48.776;11.384;2022-07-09T01:31:48;98534.00;;;23.20
15935;BMP180;8066;48.776;11.384;2022-07-09T01:34:15;98534.00;;;23.20
15935;BMP180;8066;48.776;11.384;2022-07-09T01:36:42;98531.00;;;23.20
15935;BMP180;8066;48.776;11.384;2022-07-09T01:39:11;98522.00;;;23.20
15935;BMP180;8066;48.776;11.384;2022-07-09T01:41:38;98526.00;;;23.20
15935;BMP180;8066;48.776;11.384;2022-07-09T01:44:04;98511.00;;;23.10
15935;BMP180;8066;48.776;11.384;2022-07-09T01:46:32;98518.00;;;23.10
15935;BMP180;8066;48.776;11.384;2022-07-09T01:48:59;98522.00;;;23.10
15935;BMP180;8066;48.776;11.384;2022-07-09T01:51:26;98511.00;;;23.10
15935;BMP180;8066;48.776;11.384;2022-07-09T01:53:53;98508.00;;;23.10
15935;BMP180;8066;48.776;11.384;2022-07-09T01:56:21;98509.00;;;23.10
15935;BMP180;8066;48.776;11.384;2022-07-09T01:58:48;98509.00;;;23.00
15935;BMP180;8066;48.776;11.384;2022-07-09T02:01:15;98503.00;;;23.00
15935;BMP180;8066;48.776;11.384;2022-07-09T02:03:42;98499.00;;;23.00
15935;BMP180;8066;48.776;11.384;2022-07-09T02:06:09;98505.00;;;22.90
15935;BMP180;8066;48.776;11.384;2022-07-09T02:08:35;98494.00;;;22.90
15935;BMP180;8066;48.776;11.384;2022-07-09T02:11:05;98491.00;;;22.90
15935;BMP180;8066;48.776;11.384;2022-07-09T02:13:33;98494.00;;;22.80
15935;BMP180;8066;48.776;11.384;2022-07-09T02:16:00;98501.00;;;22.90
15935;BMP180;8066;48.776;11.384;2022-07-09T02:18:27;98502.00;;;22.80
15935;BMP180;8066;48.776;11.384;2022-07-09T02:20:54;98498.00;;;22.80
15935;BMP180;8066;48.776;11.384;2022-07-09T02:23:22;98496.00;;;22.80
15935;BMP180;8066;48.776;11.384;2022-07-09T02:25:49;98508.00;;;22.80
15935;BMP180;8066;48.776;11.384;2022-07-09T02:28:16;98510.00;;;22.80
15935;BMP180;8066;48.776;11.384;2022-07-09T02:30:44;98497.00;;;22.80
15935;BMP180;8066;48.776;11.384;2022-07-09T02:33:11;98502.00;;;22.80
15935;BMP180;8066;48.776;11.384;2022-07-09T02:35:38;98491.00;;;22.80
15935;BMP180;8066;48.776;11.384;2022-07-09T02:38:05;98478.00;;;22.80
15935;BMP180;8066;48.776;11.384;2022-07-09T02:40:32;98486.00;;;22.80
15935;BMP180;8066;48.776;11.384;2022-07-09T02:42:59;98486.00;;;22.80
15935;BMP180;8066;48.776;11.384;2022-07-09T02:45:26;98493.00;;;22.80
15935;BMP180;8066;48.776;11.384;2022-07-09T02:47:54;98492.00;;;22.80
15935;BMP180;8066;48.776;11.384;2022-07-09T02:50:21;98500.00;;;22.80
15935;BMP180;8066;48.776;11.384;2022-07-09T02:52:48;98486.00;;;22.80
15935;BMP180;8066;48.776;11.384;2022-07-09T02:55:15;98487.00;;;22.80
15935;BMP180;8066;48.776;11.384;2022-07-09T02:57:42;98493.00;;;22.80
15935;BMP180;8066;48.776;11.384;2022-07-09T03:00:09;98496.00;;;22.80
15935;BMP180;8066;48.776;11.384;2022-07-09T03:02:36;98493.00;;;22.80
15935;BMP180;8066;48.776;11.384;2022-07-09T03:05:06;98494.00;;;22.80
15935;BMP180;8066;48.776;11.384;2022-07-09T03:07:33;98496.00;;;22.80
15935;BMP180;8066;48.776;11.384;2022-07-09T03:10:00;98482.00;;;22.80
15935;BMP180;8066;48.776;11.384;2022-07-09T03:12:27;98492.00;;;22.80
15935;BMP180;8066;48.776;11.384;2022-07-09T03:14:53;98482.00;;;22.80
15935;BMP180;8066;48.776;11.384;2022-07-09T03:17:20;98497.00;;;22.80
15935;BMP180;8066;48.776;11.384;2022-07-09T03:19:47;98499.00;;;22.80
15935;BMP180;8066;48.776;11.384;2022-07-09T03:22:15;98499.00;;;22.80
15935;BMP180;8066;48.776;11.384;2022-07-09T03:24:42;98491.00;;;22.70
15935;BMP180;8066;48.776;11.384;2022-07-09T03:27:09;98500.00;;;22.70
15935;BMP180;8066;48.776;11.384;2022-07-09T03:29:36;98497.00;;;22.80
15935;BMP180;8066;48.776;11.384;2022-07-09T03:32:04;98491.00;;;22.70
15935;BMP180;8066;48.776;11.384;2022-07-09T03:34:31;98491.00;;;22.80
15935;BMP180;8066;48.776;11.384;2022-07-09T03:36:58;98500.00;;;22.80
15935;BMP180;8066;48.776;11.384;2022-07-09T03:39:27;98489.00;;;22.80
15935;BMP180;8066;48.776;11.384;2022-07-09T03:41:53;98486.00;;;22.70
15935;BMP180;8066;48.776;11.384;2022-07-09T03:44:20;98472.00;;;22.80
15935;BMP180;8066;48.776;11.384;2022-07-09T03:46:47;98503.00;;;22.80
15935;BMP180;8066;48.776;11.384;2022-07-09T03:49:14;98501.00;;;22.80
15935;BMP180;8066;48.776;11.384;2022-07-09T03:51:42;98502.00;;;22.80
15935;BMP180;8066;48.776;11.384;2022-07-09T03:54:09;98497.00;;;22.80
15935;BMP180;8066;48.776;11.384;2022-07-09T03:56:37;98494.00;;;22.80
15935;BMP180;8066;48.776;11.384;2022-07-09T03:59:04;98500.00;;;22.80
15935;BMP180;8066;48.776;11.384;2022-07-09T04:01:32;98494.00;;;22.80
15935;BMP180;8066;48.776;11.384;2022-07-09T04:03:58;98497.00;;;22.80
15935;BMP180;8066;48.776;11.384;2022-07-09T04:06:25;98499.00;;;22.80
15935;BMP180;8066;48.776;11.384;2022-07-09T04:08:52;98502.00;;;22.80
15935;BMP180;8066;48.776;11.384;2022-07-09T04:11:19;98501.00;;;22.80
15935;BMP180;8066;48.776;11.384;2022-07-09T04:13:48;98497.00;;;22.80
15935;BMP180;8066;48.776;11.384;2022-07-09T04:16:15;98501.00;;;22.80
15935;BMP180;8066;48.776;11.384;2022-07-09T04:18:42;98503.00;;;22.80
15935;BMP180;8066;48.776;11.384;2022-07-09T04:21:10;98513.00;;;22.80
15935;BMP180;8066;48.776;11.384;2022-07-09T04:23:37;98502.00;;;22.80
15935;BMP180;8066;48.776;11.384;2022-07-09T04:26:04;98501.00;;;22.80
15935;BMP180;8066;48.776;11.384;2022-07-09T04:28:31;98498.00;;;22.80
15935;BMP180;8066;48.776;11.384;2022-07-09T04:30:59;98502.00;;;22.90
15935;BMP180;8066;48.776;11.384;2022-07-09T04:33:26;98506.00;;;22.90
15935;BMP180;8066;48.776;11.384;2022-07-09T04:35:53;98505.00;;;22.90
15935;BMP180;8066;48.776;11.384;2022-07-09T04:38:20;98506.00;;;22.90
15935;BMP180;8066;48.776;11.384;2022-07-09T04:40:47;98511.00;;;22.90
15935;BMP180;8066;48.776;11.384;2022-07-09T04:43:14;98511.00;;;22.90
15935;BMP180;8066;48.776;11.384;2022-07-09T04:45:41;98512.00;;;22.90
15935;BMP180;8066;48.776;11.384;2022-07-09T04:48:09;98510.00;;;22.90
15935;BMP180;8066;48.776;11.384;2022-07-09T04:50:36;98519.00;;;22.90
15935;BMP180;8066;48.776;11.384;2022-07-09T04:53:03;98514.00;;;23.00
15935;BMP180;8066;48.776;11.384;2022-07-09T04:55:30;98522.00;;;23.00
15935;BMP180;8066;48.776;11.384;2022-07-09T04:57:57;98519.00;;;23.00
15935;BMP180;8066;48.776;11.384;2022-07-09T05:00:24;98517.00;;;23.00
15935;BMP180;8066;48.776;11.384;2022-07-09T05:02:51;98520.00;;;23.00
15935;BMP180;8066;48.776;11.384;2022-07-09T05:05:19;98510.00;;;23.00
15935;BMP180;8066;48.776;11.384;2022-07-09T05:07:48;98522.00;;;23.10
15935;BMP180;8066;48.776;11.384;2022-07-09T05:10:16;98515.00;;;23.10
15935;BMP180;8066;48.776;11.384;2022-07-09T05:12:43;98522.00;;;23.10
15935;BMP180;8066;48.776;11.384;2022-07-09T05:15:10;98520.00;;;23.10
15935;BMP180;8066;48.776;11.384;2022-07-09T05:17:39;98516.00;;;23.20
15935;BMP180;8066;48.776;11.384;2022-07-09T05:20:09;98524.00;;;23.20
15935;BMP180;8066;48.776;11.384;2022-07-09T05:22:37;98513.00;;;23.20
15935;BMP180;8066;48.776;11.384;2022-07-09T05:25:06;98518.00;;;23.20
15935;BMP180;8066;48.776;11.384;2022-07-09T05:27:41;98520.00;;;23.20
15935;BMP180;8066;48.776;11.384;2022-07-09T05:30:09;98522.00;;;23.20
15935;BMP180;8066;48.776;11.384;2022-07-09T05:32:36;98509.00;;;23.30
15935;BMP180;8066;48.776;11.384;2022-07-09T05:35:04;98510.00;;;23.30
15935;BMP180;8066;48.776;11.384;2022-07-09T05:37:31;98512.00;;;23.30
15935;BMP180;8066;48.776;11.384;2022-07-09T05:40:00;98513.00;;;23.30
15935;BMP180;8066;48.776;11.384;2022-07-09T05:42:31;98499.00;;;23.30
15935;BMP180;8066;48.776;11.384;2022-07-09T05:44:58;98515.00;;;23.40
15935;BMP180;8066;48.776;11.384;2022-07-09T05:47:25;98511.00;;;23.40
15935;BMP180;8066;48.776;11.384;2022-07-09T05:49:52;98511.00;;;23.50
15935;BMP180;8066;48.776;11.384;2022-07-09T05:52:19;98516.00;;;23.50
15935;BMP180;8066;48.776;11.384;2022-07-09T05:54:46;98528.00;;;23.60
15935;BMP180;8066;48.776;11.384;2022-07-09T05:57:14;98516.00;;;23.60
15935;BMP180;8066;48.776;11.384;2022-07-09T05:59:41;98520.00;;;23.70
15935;BMP180;8066;48.776;11.384;2022-07-09T06:02:08;98511.00;;;23.70
15935;BMP180;8066;48.776;11.384;2022-07-09T06:04:35;98497.00;;;23.70
15935;BMP180;8066;48.776;11.384;2022-07-09T06:07:02;98497.00;;;23.70
15935;BMP180;8066;48.776;11.384;2022-07-09T06:09:29;98505.00;;;23.80
15935;BMP180;8066;48.776;11.384;2022-07-09T06:11:56;98506.00;;;23.80
15935;BMP180;8066;48.776;11.384;2022-07-09T06:14:25;98504.00;;;23.90
15935;BMP180;8066;48.776;11.384;2022-07-09T06:16:52;98496.00;;;24.00
15935;BMP180;8066;48.776;11.384;2022-07-09T06:19:21;98490.00;;;24.10
15935;BMP180;8066;48.776;11.384;2022-07-09T06:21:48;98502.00;;;24.20
15935;BMP180;8066;48.776;11.384;2022-07-09T06:24:14;98501.00;;;24.30
15935;BMP180;8066;48.776;11.384;2022-07-09T06:26:41;98493.00;;;24.40
15935;BMP180;8066;48.776;11.384;2022-07-09T06:29:08;98500.00;;;24.50
15935;BMP180;8066;48.776;11.384;2022-07-09T06:31:37;98492.00;;;24.60
15935;BMP180;8066;48.776;11.384;2022-07-09T06:34:03;98503.00;;;24.70
15935;BMP180;8066;48.776;11.384;2022-07-09T06:36:30;98499.00;;;24.90
15935;BMP180;8066;48.776;11.384;2022-07-09T06:38:57;98508.00;;;25.00
15935;BMP180;8066;48.776;11.384;2022-07-09T06:41:42;98486.00;;;25.20
15935;BMP180;8066;48.776;11.384;2022-07-09T06:44:09;98491.00;;;25.30
15935;BMP180;8066;48.776;11.384;2022-07-09T06:46:37;98486.00;;;25.40
15935;BMP180;8066;48.776;11.384;2022-07-09T06:49:04;98477.00;;;25.50
15935;BMP180;8066;48.776;11.384;2022-07-09T06:51:31;98473.00;;;25.60
15935;BMP180;8066;48.776;11.384;2022-07-09T06:53:58;98486.00;;;25.70
15935;BMP180;8066;48.776;11.384;2022-07-09T06:56:25;98489.00;;;25.80
15935;BMP180;8066;48.776;11.384;2022-07-09T06:58:52;98494.00;;;25.90
15935;BMP180;8066;48.776;11.384;2022-07-09T07:01:19;98497.00;;;26.00
15935;BMP180;8066;48.776;11.384;2022-07-09T07:03:47;98493.00;;;26.10
15935;BMP180;8066;48.776;11.384;2022-07-09T07:06:14;98496.00;;;26.20
15935;BMP180;8066;48.776;11.384;2022-07-09T07:08:40;98490.00;;;26.40
15935;BMP180;8066;48.776;11.384;2022-07-09T07:11:07;98482.00;;;26.50
15935;BMP180;8066;48.776;11.384;2022-07-09T07:13:34;98488.00;;;26.70
15935;BMP180;8066;48.776;11.384;2022-07-09T07:16:01;98476.00;;;26.90
15935;BMP180;8066;48.776;11.384;2022-07-09T07:18:28;98477.00;;;27.10
15935;BMP180;8066;48.776;11.384;2022-07-09T07:20:56;98481.00;;;27.30
15935;BMP180;8066;48.776;11.384;2022-07-09T07:23:23;98469.00;;;27.70
15935;BMP180;8066;48.776;11.384;2022-07-09T07:25:50;98466.00;;;28.10
15935;BMP180;8066;48.776;11.384;2022-07-09T07:28:17;98469.00;;;28.60
15935;BMP180;8066;48.776;11.384;2022-07-09T07:30:43;98467.00;;;29.10
15935;BMP180;8066;48.776;11.384;2022-07-09T07:33:10;98447.00;;;29.70
15935;BMP180;8066;48.776;11.384;2022-07-09T07:35:37;98459.00;;;30.20
15935;BMP180;8066;48.776;11.384;2022-07-09T07:38:06;98445.00;;;30.80
15935;BMP180;8066;48.776;11.384;2022-07-09T07:40:33;98436.00;;;31.20
15935;BMP180;8066;48.776;11.384;2022-07-09T07:43:00;98434.00;;;31.70
15935;BMP180;8066;48.776;11.384;2022-07-09T07:45:27;98437.00;;;32.20
15935;BMP180;8066;48.776;11.384;2022-07-09T07:47:54;98435.00;;;32.70
15935;BMP180;8066;48.776;11.384;2022-07-09T07:50:22;98428.00;;;33.20
15935;BMP180;8066;48.776;11.384;2022-07-09T07:52:49;98431.00;;;33.40
15935;BMP180;8066;48.776;11.384;2022-07-09T07:55:17;98432.00;;;33.60
15935;BMP180;8066;48.776;11.384;2022-07-09T07:57:44;98442.00;;;33.80
15935;BMP180;8066;48.776;11.384;2022-07-09T08:00:12;98430.00;;;34.10
15935;BMP180;8066;48.776;11.384;2022-07-09T08:02:39;98438.00;;;34.30
15935;BMP180;8066;48.776;11.384;2022-07-09T08:05:07;98428.00;;;34.40
15935;BMP180;8066;48.776;11.384;2022-07-09T08:07:34;98437.00;;;34.70
15935;BMP180;8066;48.776;11.384;2022-07-09T08:10:01;98434.00;;;35.00
15935;BMP180;8066;48.776;11.384;2022-07-09T08:12:30;98429.00;;;35.20
15935;BMP180;8066;48.776;11.384;2022-07-09T08:14:57;98422.00;;;35.50
15935;BMP180;8066;48.776;11.384;2022-07-09T08:17:23;98429.00;;;35.70
15935;BMP180;8066;48.776;11.384;2022-07-09T08:19:50;98434.00;;;35.90
15935;BMP180;8066;48.776;11.384;2022-07-09T08:22:17;98428.00;;;36.10
15935;BMP180;8066;48.776;11.384;2022-07-09T08:24:44;98429.00;;;36.30
15935;BMP180;8066;48.776;11.384;2022-07-09T08:27:11;98425.00;;;36.40
15935;BMP180;8066;48.776;11.384;2022-07-09T08:29:39;98424.00;;;36.50
15935;BMP180;8066;48.776;11.384;2022-07-09T08:32:07;98421.00;;;36.50
15935;BMP180;8066;48.776;11.384;2022-07-09T08:34:34;98425.00;;;36.50
15935;BMP180;8066;48.776;11.384;2022-07-09T08:37:01;98421.00;;;36.50
15935;BMP180;8066;48.776;11.384;2022-07-09T08:39:27;98427.00;;;36.40
15935;BMP180;8066;48.776;11.384;2022-07-09T08:41:54;98426.00;;;36.30
15935;BMP180;8066;48.776;11.384;2022-07-09T08:44:29;98427.00;;;36.00
15935;BMP180;8066;48.776;11.384;2022-07-09T08:47:01;98421.00;;;35.70
15935;BMP180;8066;48.776;11.384;2022-07-09T08:49:28;98428.00;;;35.60
15935;BMP180;8066;48.776;11.384;2022-07-09T08:51:57;98417.00;;;35.50
15935;BMP180;8066;48.776;11.384;2022-07-09T08:54:24;98422.00;;;35.50
15935;BMP180;8066;48.776;11.384;2022-07-09T08:56:52;98418.00;;;35.40
15935;BMP180;8066;48.776;11.384;2022-07-09T08:59:19;98409.00;;;35.40
15935;BMP180;8066;48.776;11.384;2022-07-09T09:01:46;98413.00;;;35.30
15935;BMP180;8066;48.776;11.384;2022-07-09T09:04:14;98424.00;;;35.20
15935;BMP180;8066;48.776;11.384;2022-07-09T09:06:41;98414.00;;;35.00
15935;BMP180;8066;48.776;11.384;2022-07-09T09:09:09;98404.00;;;34.80
15935;BMP180;8066;48.776;11.384;2022-07-09T09:11:37;98410.00;;;34.50
15935;BMP180;8066;48.776;11.384;2022-07-09T09:14:04;98408.00;;;34.30
15935;BMP180;8066;48.776;11.384;2022-07-09T09:16:41;98411.00;;;34.00
15935;BMP180;8066;48.776;11.384;2022-07-09T09:19:09;98409.00;;;33.80
15935;BMP180;8066;48.776;11.384;2022-07-09T09:21:37;98405.00;;;33.60
15935;BMP180;8066;48.776;11.384;2022-07-09T09:24:05;98396.00;;;33.40
15935;BMP180;8066;48.776;11.384;2022-07-09T09:26:33;98402.00;;;33.30
15935;BMP180;8066;48.776;11.384;2022-07-09T09:29:03;98392.00;;;33.20
15935;BMP180;8066;48.776;11.384;2022-07-09T09:31:32;98384.00;;;33.20
15935;BMP180;8066;48.776;11.384;2022-07-09T09:34:13;98393.00;;;33.40
15935;BMP180;8066;48.776;11.384;2022-07-09T09:36:44;98387.00;;;33.60
15935;BMP180;8066;48.776;11.384;2022-07-09T09:39:16;98377.00;;;33.70
15935;BMP180;8066;48.776;11.384;2022-07-09T09:41:46;98378.00;;;33.70
15935;BMP180;8066;48.776;11.384;2022-07-09T09:44:16;98370.00;;;33.70
15935;BMP180;8066;48.776;11.384;2022-07-09T09:46:44;98374.00;;;33.80
15935;BMP180;8066;48.776;11.384;2022-07-09T09:49:13;98384.00;;;33.90
15935;BMP180;8066;48.776;11.384;2022-07-09T09:51:51;98379.00;;;34.00
15935;BMP180;8066;48.776;11.384;2022-07-09T09:54:23;98375.00;;;34.10
15935;BMP180;8066;48.776;11.384;2022-07-09T09:56:50;98371.00;;;34.20
15935;BMP180;8066;48.776;11.384;2022-07-09T09:59:17;98354.00;;;34.20
15935;BMP180;8066;48.776;11.384;2022-07-09T10:01:45;98367.00;;;34.30
15935;BMP180;8066;48.776;11.384;2022-07-09T10:04:14;98361.00;;;34.60
15935;BMP180;8066;48.776;11.384;2022-07-09T10:06:42;98350.00;;;35.00
15935;BMP180;8066;48.776;11.384;2022-07-09T10:09:13;98345.00;;;35.50
15935;BMP180;8066;48.776;11.384;2022-07-09T10:11:42;98338.00;;;36.10
15935;BMP180;8066;48.776;11.384;2022-07-09T10:14:16;98349.00;;;36.80
15935;BMP180;8066;48.776;11.384;2022-07-09T10:16:44;98340.00;;;37.50
15935;BMP180;8066;48.776;11.384;2022-07-09T10:19:23;98338.00;;;38.20
15935;BMP180;8066;48.776;11.384;2022-07-09T10:21:53;98332.00;;;38.70
15935;BMP180;8066;48.776;11.384;2022-07-09T10:24:27;98329.00;;;39.30
15935;BMP180;8066;48.776;11.384;2022-07-09T10:27:04;98320.00;;;39.80
15935;BMP180;8066;48.776;11.384;2022-07-09T10:29:33;98318.00;;;40.10
15935;BMP180;8066;48.776;11.384;2022-07-09T10:32:00;98323.00;;;40.00
15935;BMP180;8066;48.776;11.384;2022-07-09T10:34:40;98322.00;;;39.70
15935;BMP180;8066;48.776;11.384;2022-07-09T10:37:09;98326.00;;;39.40
15935;BMP180;8066;48.776;11.384;2022-07-09T10:39:37;98320.00;;;39.00
15935;BMP180;8066;48.776;11.384;2022-07-09T10:42:07;98323.00;;;38.70
15935;BMP180;8066;48.776;11.384;2022-07-09T10:44:43;98322.00;;;38.40
15935;BMP180;8066;48.776;11.384;2022-07-09T10:47:11;98333.00;;;38.00
15935;BMP180;8066;48.776;11.384;2022-07-09T10:49:38;98317.00;;;37.70
15935;BMP180;8066;48.776;11.384;2022-07-09T10:52:07;98329.00;;;37.40
15935;BMP180;8066;48.776;11.384;2022-07-09T10:54:46;98330.00;;;37.00
15935;BMP180;8066;48.776;11.384;2022-07-09T10:57:14;98344.00;;;36.80
15935;BMP180;8066;48.776;11.384;2022-07-09T10:59:46;98343.00;;;36.50
15935;BMP180;8066;48.776;11.384;2022-07-09T11:02:20;98348.00;;;36.10
15935;BMP180;8066;48.776;11.384;2022-07-09T11:04:51;98344.00;;;35.80
15935;BMP180;8066;48.776;11.384;2022-07-09T11:07:20;98341.00;;;35.50
15935;BMP180;8066;48.776;11.384;2022-07-09T11:09:50;98348.00;;;35.10
15935;BMP180;8066;48.776;11.384;2022-07-09T11:12:19;98343.00;;;34.90
15935;BMP180;8066;48.776;11.384;2022-07-09T11:14:48;98335.00;;;34.70
15935;BMP180;8066;48.776;11.384;2022-07-09T11:17:16;98352.00;;;34.50
15935;BMP180;8066;48.776;11.384;2022-07-09T11:19:44;98337.00;;;34.30
15935;BMP180;8066;48.776;11.384;2022-07-09T11:22:11;98322.00;;;34.10
15935;BMP180;8066;48.776;11.384;2022-07-09T11:24:38;98348.00;;;34.00
15935;BMP180;8066;48.776;11.384;2022-07-09T11:27:08;98334.00;;;33.80
15935;BMP180;8066;48.776;11.384;2022-07-09T11:29:37;98330.00;;;33.70
15935;BMP180;8066;48.776;11.384;2022-07-09T11:32:04;98327.00;;;33.60
15935;BMP180;8066;48.776;11.384;2022-07-09T11:34:31;98335.00;;;33.50
15935;BMP180;8066;48.776;11.384;2022-07-09T11:36:59;98326.00;;;33.40
15935;BMP180;8066;48.776;11.384;2022-07-09T11:39:29;98315.00;;;33.30
15935;BMP180;8066;48.776;11.384;2022-07-09T11:41:57;98319.00;;;33.20
15935;BMP180;8066;48.776;11.384;2022-07-09T11:44:27;98316.00;;;33.20
15935;BMP180;8066;48.776;11.384;2022-07-09T11:47:06;98320.00;;;33.20
15935;BMP180;8066;48.776;11.384;2022-07-09T11:49:35;98320.00;;;33.30
15935;BMP180;8066;48.776;11.384;2022-07-09T11:52:02;98298.00;;;33.40
15935;BMP180;8066;48.776;11.384;2022-07-09T11:54:29;98317.00;;;33.50
15935;BMP180;8066;48.776;11.384;2022-07-09T11:56:57;98308.00;;;33.60
15935;BMP180;8066;48.776;11.384;2022-07-09T11:59:30;98311.00;;;33.70
15935;BMP180;8066;48.776;11.384;2022-07-09T12:01:59;98310.00;;;33.80
15935;BMP180;8066;48.776;11.384;2022-07-09T12:04:29;98307.00;;;33.80
15935;BMP180;8066;48.776;11.384;2022-07-09T12:06:56;98303.00;;;33.90
15935;BMP180;8066;48.776;11.384;2022-07-09T12:09:29;98294.00;;;34.00
15935;BMP180;8066;48.776;11.384;2022-07-09T12:11:59;98296.00;;;34.10
15935;BMP180;8066;48.776;11.384;2022-07-09T12:14:28;98295.00;;;34.20
15935;BMP180;8066;48.776;11.384;2022-07-09T12:16:56;98283.00;;;34.30
15935;BMP180;8066;48.776;11.384;2022-07-09T12:19:23;98286.00;;;34.30
15935;BMP180;8066;48.776;11.384;2022-07-09T12:21:50;98289.00;;;34.40
15935;BMP180;8066;48.776;11.384;2022-07-09T12:24:17;98290.00;;;34.40
15935;BMP180;8066;48.776;11.384;2022-07-09T12:26:45;98293.00;;;34.40
15935;BMP180;8066;48.776;11.384;2022-07-09T12:29:12;98291.00;;;34.30
15935;BMP180;8066;48.776;11.384;2022-07-09T12:31:48;98289.00;;;34.30
15935;BMP180;8066;48.776;11.384;2022-07-09T12:34:17;98280.00;;;34.30
15935;BMP180;8066;48.776;11.384;2022-07-09T12:36:44;98282.00;;;34.20
15935;BMP180;8066;48.776;11.384;2022-07-09T12:39:13;98281.00;;;34.20
15935;BMP180;8066;48.776;11.384;2022-07-09T12:41:40;98285.00;;;34.20
15935;BMP180;8066;48.776;11.384;2022-07-09T12:44:07;98262.00;;;34.20
15935;BMP180;8066;48.776;11.384;2022-07-09T12:46:34;98303.00;;;34.10
15935;BMP180;8066;48.776;11.384;2022-07-09T12:49:04;98283.00;;;34.10
15935;BMP180;8066;48.776;11.384;2022-07-09T12:51:31;98263.00;;;34.10
15935;BMP180;8066;48.776;11.384;2022-07-09T12:53:59;98267.00;;;34.10
15935;BMP180;8066;48.776;11.384;2022-07-09T12:56:26;98250.00;;;34.10
15935;BMP180;8066;48.776;11.384;2022-07-09T12:58:53;98227.00;;;34.20
15935;BMP180;8066;48.776;11.384;2022-07-09T13:01:20;98240.00;;;34.20
15935;BMP180;8066;48.776;11.384;2022-07-09T13:03:47;98238.00;;;34.20
15935;BMP180;8066;48.776;11.384;2022-07-09T13:06:16;98233.00;;;34.30
15935;BMP180;8066;48.776;11.384;2022-07-09T13:09:02;98235.00;;;34.40
15935;BMP180;8066;48.776;11.384;2022-07-09T13:11:29;98237.00;;;34.40
15935;BMP180;8066;48.776;11.384;2022-07-09T13:13:56;98229.00;;;34.50
15935;BMP180;8066;48.776;11.384;2022-07-09T13:16:24;98226.00;;;34.50
15935;BMP180;8066;48.776;11.384;2022-07-09T13:18:51;98221.00;;;34.50
15935;BMP180;8066;48.776;11.384;2022-07-09T13:21:20;98224.00;;;34.40
15935;BMP180;8066;48.776;11.384;2022-07-09T13:23:49;98217.00;;;34.40
15935;BMP180;8066;48.776;11.384;2022-07-09T13:26:17;98221.00;;;34.40
15935;BMP180;8066;48.776;11.384;2022-07-09T13:28:44;98215.00;;;34.40
15935;BMP180;8066;48.776;11.384;2022-07-09T13:31:11;98207.00;;;34.40
15935;BMP180;8066;48.776;11.384;2022-07-09T13:33:38;98228.00;;;34.40
15935;BMP180;8066;48.776;11.384;2022-07-09T13:36:06;98212.00;;;34.30
15935;BMP180;8066;48.776;11.384;2022-07-09T13:38:35;98212.00;;;34.30
15935;BMP180;8066;48.776;11.384;2022-07-09T13:41:02;98205.00;;;34.30
15935;BMP180;8066;48.776;11.384;2022-07-09T13:43:29;98191.00;;;34.20
15935;BMP180;8066;48.776;11.384;2022-07-09T13:45:57;98205.00;;;34.20
15935;BMP180;8066;48.776;11.384;2022-07-09T13:48:26;98204.00;;;34.10
15935;BMP180;8066;48.776;11.384;2022-07-09T13:50:54;98180.00;;;34.10
15935;BMP180;8066;48.776;11.384;2022-07-09T13:53:20;98200.00;;;34.10
15935;BMP180;8066;48.776;11.384;2022-07-09T13:55:49;98203.00;;;34.00
15935;BMP180;8066;48.776;11.384;2022-07-09T13:58:16;98195.00;;;34.00
15935;BMP180;8066;48.776;11.384;2022-07-09T14:00:43;98203.00;;;33.90
15935;BMP180;8066;48.776;11.384;2022-07-09T14:03:09;98211.00;;;33.90
15935;BMP180;8066;48.776;11.384;2022-07-09T14:05:37;98197.00;;;33.80
15935;BMP180;8066;48.776;11.384;2022-07-09T14:08:04;98201.00;;;33.80
15935;BMP180;8066;48.776;11.384;2022-07-09T14:10:33;98191.00;;;33.70
15935;BMP180;8066;48.776;11.384;2022-07-09T14:13:02;98189.00;;;33.70